sensor_id;sensor_type;location;lat;lon;timestamp;pressure;altitude;pressure_sealevel;temperature;humidity
50349;BME280;36250;48.740;22.174;2023-02-27T00:01:28;100518.81;;;1.95;58.81
50349;BME280;36250;48.740;22.174;2023-02-27T00:03:56;100524.63;;;1.99;58.54
50349;BME280;36250;48.740;22.174;2023-02-27T00:06:21;100534.53;;;1.98;59.44
50349;BME280;36250;48.740;22.174;2023-02-27T00:08:46;100534.94;;;1.95;59.31
50349;BME280;36250;48.740;22.174;2023-02-27T00:11:12;100525.56;;;1.91;59.23
50349;BME280;36250;48.740;22.174;2023-02-27T00:13:37;100525.75;;;1.90;58.88
50349;BME280;36250;48.740;22.174;2023-02-27T00:16:03;100520.84;;;1.93;58.92
50349;BME280;36250;48.740;22.174;2023-02-27T00:18:29;100531.41;;;1.95;59.63
50349;BME280;36250;48.740;22.174;2023-02-27T00:20:54;100527.41;;;1.91;59.60
50349;BME280;36250;48.740;22.174;2023-02-27T00:23:19;100522.25;;;1.89;59.55
50349;BME280;36250;48.740;22.174;2023-02-27T00:25:45;100520.56;;;1.88;59.30
50349;BME280;36250;48.740;22.174;2023-02-27T00:28:10;100525.94;;;1.88;59.43
50349;BME280;36250;48.740;22.174;2023-02-27T00:30:36;100534.47;;;1.92;59.59
50349;BME280;36250;48.740;22.174;2023-02-27T00:33:01;100532.78;;;1.91;59.11
50349;BME280;36250;48.740;22.174;2023-02-27T00:35:27;100529.47;;;1.89;59.43
50349;BME280;36250;48.740;22.174;2023-02-27T00:37:53;100539.81;;;1.92;59.55
50349;BME280;36250;48.740;22.174;2023-02-27T00:40:18;100542.03;;;1.88;58.63
50349;BME280;36250;48.740;22.174;2023-02-27T00:42:43;100537.34;;;1.90;58.84
50349;BME280;36250;48.740;22.174;2023-02-27T00:45:10;100543.06;;;1.87;59.64
50349;BME280;36250;48.740;22.174;2023-02-27T00:47:36;100544.72;;;1.88;58.67
50349;BME280;36250;48.740;22.174;2023-02-27T00:50:02;100551.41;;;1.92;58.44
50349;BME280;36250;48.740;22.174;2023-02-27T00:52:28;100549.72;;;1.91;57.81
50349;BME280;36250;48.740;22.174;2023-02-27T00:54:53;100547.50;;;1.95;57.77
50349;BME280;36250;48.740;22.174;2023-02-27T00:57:19;100546.75;;;1.86;58.04
50349;BME280;36250;48.740;22.174;2023-02-27T00:59:44;100548.44;;;1.87;57.95
50349;BME280;36250;48.740;22.174;2023-02-27T01:02:10;100552.50;;;1.83;59.03
50349;BME280;36250;48.740;22.174;2023-02-27T01:04:36;100554.25;;;1.76;58.39
50349;BME280;36250;48.740;22.174;2023-02-27T01:07:02;100549.94;;;1.75;58.80
50349;BME280;36250;48.740;22.174;2023-02-27T01:09:27;100550.38;;;1.79;58.05
50349;BME280;36250;48.740;22.174;2023-02-27T01:11:53;100541.31;;;1.80;58.36
50349;BME280;36250;48.740;22.174;2023-02-27T01:14:18;100546.22;;;1.76;58.75
50349;BME280;36250;48.740;22.174;2023-02-27T01:16:44;100539.84;;;1.77;58.49
50349;BME280;36250;48.740;22.174;2023-02-27T01:19:09;100543.34;;;1.78;59.03
50349;BME280;36250;48.740;22.174;2023-02-27T01:21:35;100556.13;;;1.76;58.30
50349;BME280;36250;48.740;22.174;2023-02-27T01:24:01;100542.88;;;1.74;58.56
50349;BME280;36250;48.740;22.174;2023-02-27T01:26:26;100551.56;;;1.76;58.53
50349;BME280;36250;48.740;22.174;2023-02-27T01:28:52;100556.94;;;1.76;58.57
50349;BME280;36250;48.740;22.174;2023-02-27T01:31:17;100551.56;;;1.76;57.74
50349;BME280;36250;48.740;22.174;2023-02-27T01:33:43;100546.22;;;1.76;58.37
50349;BME280;36250;48.740;22.174;2023-02-27T01:36:08;100554.44;;;1.75;58.96
50349;BME280;36250;48.740;22.174;2023-02-27T01:38:34;100548.06;;;1.76;57.87
50349;BME280;36250;48.740;22.174;2023-02-27T01:41:00;100556.13;;;1.76;58.47
50349;BME280;36250;48.740;22.174;2023-02-27T01:43:26;100553.72;;;1.81;58.20
50349;BME280;36250;48.740;22.174;2023-02-27T01:45:51;100546.69;;;1.80;58.42
50349;BME280;36250;48.740;22.174;2023-02-27T01:48:24;100544.00;;;1.80;57.98
50349;BME280;36250;48.740;22.174;2023-02-27T01:53:20;100538.25;;;1.83;58.18
50349;BME280;36250;48.740;22.174;2023-02-27T01:55:51;100539.06;;;1.83;57.51
50349;BME280;36250;48.740;22.174;2023-02-27T01:58:18;100546.75;;;1.86;57.75
50349;BME280;36250;48.740;22.174;2023-02-27T02:00:44;100553.81;;;1.87;58.02
50349;BME280;36250;48.740;22.174;2023-02-27T02:06:10;100556.50;;;1.87;58.57
50349;BME280;36250;48.740;22.174;2023-02-27T02:08:40;100542.22;;;1.87;58.33
50349;BME280;36250;48.740;22.174;2023-02-27T02:11:07;100546.41;;;1.89;57.99
50349;BME280;36250;48.740;22.174;2023-02-27T02:13:33;100551.78;;;1.89;58.21
50349;BME280;36250;48.740;22.174;2023-02-27T02:26:48;100550.56;;;1.92;58.70
50349;BME280;36250;48.740;22.174;2023-02-27T02:42:55;100583.63;;;1.92;60.01
50349;BME280;36250;48.740;22.174;2023-02-27T02:45:31;100586.00;;;1.87;60.39
50349;BME280;36250;48.740;22.174;2023-02-27T02:48:19;100591.38;;;1.87;60.66
50349;BME280;36250;48.740;22.174;2023-02-27T02:50:55;100588.88;;;1.86;61.39
50349;BME280;36250;48.740;22.174;2023-02-27T02:56:27;100594.22;;;1.86;61.13
50349;BME280;36250;48.740;22.174;2023-02-27T02:59:10;100600.81;;;1.83;61.07
50349;BME280;36250;48.740;22.174;2023-02-27T03:04:34;100608.69;;;1.85;61.72
50349;BME280;36250;48.740;22.174;2023-02-27T03:07:08;100608.03;;;1.83;62.90
50349;BME280;36250;48.740;22.174;2023-02-27T03:09:52;100606.56;;;1.80;62.33
50349;BME280;36250;48.740;22.174;2023-02-27T03:12:19;100605.25;;;1.76;61.67
50349;BME280;36250;48.740;22.174;2023-02-27T03:14:59;100606.91;;;1.77;61.82
50349;BME280;36250;48.740;22.174;2023-02-27T03:17:48;100603.75;;;1.74;61.94
50349;BME280;36250;48.740;22.174;2023-02-27T03:20:22;100606.44;;;1.74;62.80
50349;BME280;36250;48.740;22.174;2023-02-27T03:22:52;100617.00;;;1.75;62.58
50349;BME280;36250;48.740;22.174;2023-02-27T03:25:20;100622.19;;;1.77;62.78
50349;BME280;36250;48.740;22.174;2023-02-27T03:27:52;100619.03;;;1.73;62.15
50349;BME280;36250;48.740;22.174;2023-02-27T03:30:39;100618.38;;;1.71;62.46
50349;BME280;36250;48.740;22.174;2023-02-27T03:33:12;100626.41;;;1.71;61.68
50349;BME280;36250;48.740;22.174;2023-02-27T03:38:20;100625.41;;;1.72;61.89
50349;BME280;36250;48.740;22.174;2023-02-27T03:43:30;100627.53;;;1.77;61.81
50349;BME280;36250;48.740;22.174;2023-02-27T03:46:17;100627.44;;;1.70;60.78
50349;BME280;36250;48.740;22.174;2023-02-27T03:48:44;100629.94;;;1.72;61.13
50349;BME280;36250;48.740;22.174;2023-02-27T03:51:11;100627.44;;;1.70;60.48
50349;BME280;36250;48.740;22.174;2023-02-27T03:56:08;100627.44;;;1.70;60.26
50349;BME280;36250;48.740;22.174;2023-02-27T03:58:35;100637.34;;;1.70;60.47
50349;BME280;36250;48.740;22.174;2023-02-27T04:01:01;100647.25;;;1.69;60.16
50349;BME280;36250;48.740;22.174;2023-02-27T04:03:26;100641.72;;;1.71;60.61
50349;BME280;36250;48.740;22.174;2023-02-27T04:05:52;100646.41;;;1.69;60.37
50349;BME280;36250;48.740;22.174;2023-02-27T04:08:38;100645.59;;;1.68;60.44
50349;BME280;36250;48.740;22.174;2023-02-27T04:11:31;100649.28;;;1.67;60.68
50349;BME280;36250;48.740;22.174;2023-02-27T04:21:37;100631.41;;;1.60;59.97
50349;BME280;36250;48.740;22.174;2023-02-27T04:29:44;100648.69;;;1.57;59.56
50349;BME280;36250;48.740;22.174;2023-02-27T04:34:56;100638.81;;;1.58;60.12
50349;BME280;36250;48.740;22.174;2023-02-27T04:37:34;100645.38;;;1.55;60.89
50349;BME280;36250;48.740;22.174;2023-02-27T04:40:05;100646.75;;;1.51;59.77
50349;BME280;36250;48.740;22.174;2023-02-27T04:42:38;100643.88;;;1.53;61.05
50349;BME280;36250;48.740;22.174;2023-02-27T04:45:07;100649.44;;;1.51;60.41
50349;BME280;36250;48.740;22.174;2023-02-27T04:47:42;100646.47;;;1.46;59.78
50349;BME280;36250;48.740;22.174;2023-02-27T04:50:17;100644.97;;;1.44;60.39
50349;BME280;36250;48.740;22.174;2023-02-27T04:52:51;100650.13;;;1.45;60.58
50349;BME280;36250;48.740;22.174;2023-02-27T04:55:25;100660.22;;;1.43;60.75
50349;BME280;36250;48.740;22.174;2023-02-27T04:58:05;100651.34;;;1.43;59.98
50349;BME280;36250;48.740;22.174;2023-02-27T05:00:34;100653.84;;;1.44;60.05
50349;BME280;36250;48.740;22.174;2023-02-27T05:03:10;100666.97;;;1.39;60.02
50349;BME280;36250;48.740;22.174;2023-02-27T05:05:39;100667.63;;;1.41;60.64
50349;BME280;36250;48.740;22.174;2023-02-27T05:08:16;100669.66;;;1.39;59.85
50349;BME280;36250;48.740;22.174;2023-02-27T05:10:49;100666.13;;;1.39;59.80
50349;BME280;36250;48.740;22.174;2023-02-27T05:13:23;100671.31;;;1.40;60.50
50349;BME280;36250;48.740;22.174;2023-02-27T05:15:57;100665.28;;;1.38;59.93
50349;BME280;36250;48.740;22.174;2023-02-27T05:18:24;100678.88;;;1.37;59.71
50349;BME280;36250;48.740;22.174;2023-02-27T05:21:08;100683.06;;;1.39;59.95
50349;BME280;36250;48.740;22.174;2023-02-27T05:23:51;100689.22;;;1.40;59.94
50349;BME280;36250;48.740;22.174;2023-02-27T05:29:09;100700.81;;;1.40;59.96
50349;BME280;36250;48.740;22.174;2023-02-27T05:32:03;100706.16;;;1.40;60.74
50349;BME280;36250;48.740;22.174;2023-02-27T05:34:38;100702.47;;;1.41;59.61
50349;BME280;36250;48.740;22.174;2023-02-27T05:37:33;100704.81;;;1.44;60.14
50349;BME280;36250;48.740;22.174;2023-02-27T05:40:02;100717.19;;;1.45;60.67
50349;BME280;36250;48.740;22.174;2023-02-27T05:42:35;100726.63;;;1.41;60.52
50349;BME280;36250;48.740;22.174;2023-02-27T05:45:10;100738.00;;;1.43;60.48
50349;BME280;36250;48.740;22.174;2023-02-27T05:47:42;100724.59;;;1.43;59.66
50349;BME280;36250;48.740;22.174;2023-02-27T05:50:22;100721.25;;;1.41;59.83
50349;BME280;36250;48.740;22.174;2023-02-27T05:52:50;100722.41;;;1.47;60.27
50349;BME280;36250;48.740;22.174;2023-02-27T05:55:26;100726.91;;;1.46;59.84
50349;BME280;36250;48.740;22.174;2023-02-27T05:58:16;100732.41;;;1.53;60.67
50349;BME280;36250;48.740;22.174;2023-02-27T06:00:48;100738.16;;;1.64;61.00
50349;BME280;36250;48.740;22.174;2023-02-27T06:03:15;100731.56;;;1.75;60.47
50349;BME280;36250;48.740;22.174;2023-02-27T06:05:41;100748.34;;;1.69;59.73
50349;BME280;36250;48.740;22.174;2023-02-27T06:08:09;100748.84;;;1.72;60.00
50349;BME280;36250;48.740;22.174;2023-02-27T06:10:35;100750.16;;;1.76;59.60
50349;BME280;36250;48.740;22.174;2023-02-27T06:13:00;100749.63;;;1.81;59.80
50349;BME280;36250;48.740;22.174;2023-02-27T06:15:25;100756.84;;;1.80;59.39
50349;BME280;36250;48.740;22.174;2023-02-27T06:17:52;100760.47;;;1.87;59.58
50349;BME280;36250;48.740;22.174;2023-02-27T06:20:17;100748.41;;;1.83;58.92
50349;BME280;36250;48.740;22.174;2023-02-27T06:22:43;100758.50;;;1.81;59.33
50349;BME280;36250;48.740;22.174;2023-02-27T06:25:08;100766.44;;;1.75;58.95
50349;BME280;36250;48.740;22.174;2023-02-27T06:27:34;100776.53;;;1.73;59.60
50349;BME280;36250;48.740;22.174;2023-02-27T06:29:59;100764.59;;;1.75;59.88
50349;BME280;36250;48.740;22.174;2023-02-27T06:32:24;100771.91;;;1.81;59.64
50349;BME280;36250;48.740;22.174;2023-02-27T06:34:51;100774.25;;;1.84;59.83
50349;BME280;36250;48.740;22.174;2023-02-27T06:37:16;100768.78;;;1.78;59.67
50349;BME280;36250;48.740;22.174;2023-02-27T06:39:42;100772.75;;;1.82;59.16
50349;BME280;36250;48.740;22.174;2023-02-27T06:42:07;100766.25;;;1.76;59.56
50349;BME280;36250;48.740;22.174;2023-02-27T06:44:33;100768.56;;;1.79;58.70
50349;BME280;36250;48.740;22.174;2023-02-27T06:46:58;100772.66;;;1.75;58.96
50349;BME280;36250;48.740;22.174;2023-02-27T06:49:24;100788.75;;;1.75;58.67
50349;BME280;36250;48.740;22.174;2023-02-27T06:51:49;100783.06;;;1.70;58.38
50349;BME280;36250;48.740;22.174;2023-02-27T06:54:14;100787.94;;;1.67;58.36
50349;BME280;36250;48.740;22.174;2023-02-27T06:56:40;100780.94;;;1.66;58.17
50349;BME280;36250;48.740;22.174;2023-02-27T06:59:05;100791.25;;;1.77;58.44
50349;BME280;36250;48.740;22.174;2023-02-27T07:01:31;100798.22;;;1.86;58.52
50349;BME280;36250;48.740;22.174;2023-02-27T07:03:56;100803.56;;;1.86;57.33
50349;BME280;36250;48.740;22.174;2023-02-27T07:06:22;100805.84;;;1.97;57.68
50349;BME280;36250;48.740;22.174;2023-02-27T07:08:47;100803.47;;;2.02;57.14
50349;BME280;36250;48.740;22.174;2023-02-27T07:11:12;100805.13;;;2.03;57.26
50349;BME280;36250;48.740;22.174;2023-02-27T07:13:38;100813.72;;;1.98;57.30
50349;BME280;36250;48.740;22.174;2023-02-27T07:16:03;100819.09;;;1.98;55.99
50349;BME280;36250;48.740;22.174;2023-02-27T07:18:29;100819.72;;;2.00;56.59
50349;BME280;36250;48.740;22.174;2023-02-27T07:20:54;100810.63;;;2.10;57.39
50349;BME280;36250;48.740;22.174;2023-02-27T07:23:21;100805.53;;;2.15;56.13
50349;BME280;36250;48.740;22.174;2023-02-27T07:25:47;100812.78;;;2.29;55.47
50349;BME280;36250;48.740;22.174;2023-02-27T07:28:12;100806.22;;;2.31;54.67
50349;BME280;36250;48.740;22.174;2023-02-27T07:30:38;100796.38;;;2.24;54.43
50349;BME280;36250;48.740;22.174;2023-02-27T07:33:03;100804.97;;;2.05;53.81
50349;BME280;36250;48.740;22.174;2023-02-27T07:35:30;100813.72;;;1.98;54.97
50349;BME280;36250;48.740;22.174;2023-02-27T07:37:55;100804.50;;;2.16;55.95
50349;BME280;36250;48.740;22.174;2023-02-27T07:40:21;100806.47;;;2.22;54.96
50349;BME280;36250;48.740;22.174;2023-02-27T07:42:47;100802.16;;;2.35;54.29
50349;BME280;36250;48.740;22.174;2023-02-27T07:45:13;100811.41;;;2.33;54.51
50349;BME280;36250;48.740;22.174;2023-02-27T07:47:38;100815.13;;;2.32;53.69
50349;BME280;36250;48.740;22.174;2023-02-27T07:50:04;100828.72;;;2.30;52.66
50349;BME280;36250;48.740;22.174;2023-02-27T07:52:30;100816.19;;;2.23;53.50
50349;BME280;36250;48.740;22.174;2023-02-27T07:54:55;100808.91;;;2.31;52.21
50349;BME280;36250;48.740;22.174;2023-02-27T07:57:20;100821.16;;;2.34;52.60
50349;BME280;36250;48.740;22.174;2023-02-27T07:59:45;100815.13;;;2.32;52.42
50349;BME280;36250;48.740;22.174;2023-02-27T08:02:12;100821.78;;;2.36;53.56
50349;BME280;36250;48.740;22.174;2023-02-27T08:04:38;100821.78;;;2.36;51.10
50349;BME280;36250;48.740;22.174;2023-02-27T08:07:03;100817.19;;;2.44;51.87
50349;BME280;36250;48.740;22.174;2023-02-27T08:09:30;100823.66;;;2.50;51.96
50349;BME280;36250;48.740;22.174;2023-02-27T08:11:56;100824.59;;;2.57;50.93
50349;BME280;36250;48.740;22.174;2023-02-27T08:14:21;100827.28;;;2.57;50.30
50349;BME280;36250;48.740;22.174;2023-02-27T08:16:47;100833.50;;;2.57;51.95
50349;BME280;36250;48.740;22.174;2023-02-27T08:19:13;100839.25;;;2.69;50.81
50349;BME280;36250;48.740;22.174;2023-02-27T08:21:38;100848.28;;;2.76;50.83
50349;BME280;36250;48.740;22.174;2023-02-27T08:24:04;100854.31;;;2.78;51.51
50349;BME280;36250;48.740;22.174;2023-02-27T08:26:29;100847.59;;;2.74;50.51
50349;BME280;36250;48.740;22.174;2023-02-27T08:28:55;100856.34;;;2.76;49.58
50349;BME280;36250;48.740;22.174;2023-02-27T08:31:21;100857.81;;;2.64;49.51
50349;BME280;36250;48.740;22.174;2023-02-27T08:33:46;100858.81;;;2.63;49.88
50349;BME280;36250;48.740;22.174;2023-02-27T08:36:12;100858.63;;;2.64;50.13
50349;BME280;36250;48.740;22.174;2023-02-27T08:38:37;100869.00;;;2.67;49.60
50349;BME280;36250;48.740;22.174;2023-02-27T08:41:02;100864.84;;;2.65;50.49
50349;BME280;36250;48.740;22.174;2023-02-27T08:43:28;100863.94;;;2.73;49.90
50349;BME280;36250;48.740;22.174;2023-02-27T08:45:53;100868.97;;;2.90;49.47
50349;BME280;36250;48.740;22.174;2023-02-27T08:48:18;100872.28;;;2.92;49.89
50349;BME280;36250;48.740;22.174;2023-02-27T08:50:45;100875.06;;;2.99;50.19
50349;BME280;36250;48.740;22.174;2023-02-27T08:53:11;100881.66;;;3.11;49.64
50349;BME280;36250;48.740;22.174;2023-02-27T08:55:36;100881.75;;;3.17;49.48
50349;BME280;36250;48.740;22.174;2023-02-27T08:58:01;100895.09;;;3.25;48.52
50349;BME280;36250;48.740;22.174;2023-02-27T09:00:27;100896.50;;;3.21;48.85
50349;BME280;36250;48.740;22.174;2023-02-27T09:02:53;100893.91;;;3.28;49.61
50349;BME280;36250;48.740;22.174;2023-02-27T09:05:18;100895.22;;;3.32;48.43
50349;BME280;36250;48.740;22.174;2023-02-27T09:07:44;100893.81;;;3.21;48.50
50349;BME280;36250;48.740;22.174;2023-02-27T09:10:09;100901.69;;;3.38;49.61
50349;BME280;36250;48.740;22.174;2023-02-27T09:12:36;100908.25;;;3.50;47.90
50349;BME280;36250;48.740;22.174;2023-02-27T09:15:02;100913.41;;;3.45;48.70
50349;BME280;36250;48.740;22.174;2023-02-27T09:17:29;100914.97;;;3.54;49.32
50349;BME280;36250;48.740;22.174;2023-02-27T09:19:55;100915.50;;;3.64;49.02
50349;BME280;36250;48.740;22.174;2023-02-27T09:22:20;100912.25;;;3.68;48.33
50349;BME280;36250;48.740;22.174;2023-02-27T09:24:45;100916.50;;;3.77;49.14
50349;BME280;36250;48.740;22.174;2023-02-27T09:27:11;100922.34;;;3.81;48.14
50349;BME280;36250;48.740;22.174;2023-02-27T09:29:36;100919.38;;;3.76;48.96
50349;BME280;36250;48.740;22.174;2023-02-27T09:32:01;100933.13;;;3.81;50.17
50349;BME280;36250;48.740;22.174;2023-02-27T09:34:27;100929.44;;;4.03;47.84
50349;BME280;36250;48.740;22.174;2023-02-27T09:36:53;100934.34;;;3.99;48.21
50349;BME280;36250;48.740;22.174;2023-02-27T09:39:19;100930.63;;;4.15;49.36
50349;BME280;36250;48.740;22.174;2023-02-27T09:41:58;100929.97;;;4.34;47.82
50349;BME280;36250;48.740;22.174;2023-02-27T09:44:46;100931.25;;;4.38;46.95
50349;BME280;36250;48.740;22.174;2023-02-27T09:47:24;100922.53;;;4.15;46.88
50349;BME280;36250;48.740;22.174;2023-02-27T09:49:53;100927.50;;;3.97;48.28
50349;BME280;36250;48.740;22.174;2023-02-27T09:52:20;100930.94;;;4.06;48.92
50349;BME280;36250;48.740;22.174;2023-02-27T09:54:45;100937.59;;;4.10;48.64
50349;BME280;36250;48.740;22.174;2023-02-27T09:57:36;100931.88;;;4.19;48.73
50349;BME280;36250;48.740;22.174;2023-02-27T10:00:14;100944.66;;;4.11;48.09
50349;BME280;36250;48.740;22.174;2023-02-27T10:02:58;100937.19;;;3.77;49.76
50349;BME280;36250;48.740;22.174;2023-02-27T10:05:35;100946.94;;;3.78;50.54
50349;BME280;36250;48.740;22.174;2023-02-27T10:08:13;100956.47;;;3.95;50.42
50349;BME280;36250;48.740;22.174;2023-02-27T10:11:02;100956.47;;;3.95;50.25
50349;BME280;36250;48.740;22.174;2023-02-27T10:16:20;100967.03;;;4.11;50.47
50349;BME280;36250;48.740;22.174;2023-02-27T10:18:56;100959.06;;;4.03;50.60
50349;BME280;36250;48.740;22.174;2023-02-27T10:21:43;100963.94;;;4.14;50.25
50349;BME280;36250;48.740;22.174;2023-02-27T10:24:24;100967.28;;;4.16;50.86
50349;BME280;36250;48.740;22.174;2023-02-27T10:26:53;100965.22;;;4.18;49.78
50349;BME280;36250;48.740;22.174;2023-02-27T10:29:29;100964.75;;;4.29;49.17
50349;BME280;36250;48.740;22.174;2023-02-27T10:32:04;100964.00;;;4.21;49.44
50349;BME280;36250;48.740;22.174;2023-02-27T10:34:32;100967.69;;;4.13;49.84
50349;BME280;36250;48.740;22.174;2023-02-27T10:37:01;100967.03;;;4.11;49.07
50349;BME280;36250;48.740;22.174;2023-02-27T10:39:29;100969.38;;;3.99;49.18
50349;BME280;36250;48.740;22.174;2023-02-27T10:42:03;100963.56;;;3.81;49.26
50349;BME280;36250;48.740;22.174;2023-02-27T10:44:30;100979.91;;;3.80;50.63
50349;BME280;36250;48.740;22.174;2023-02-27T10:46:56;100974.78;;;3.85;49.38
50349;BME280;36250;48.740;22.174;2023-02-27T10:49:21;100987.59;;;3.83;50.78
50349;BME280;36250;48.740;22.174;2023-02-27T10:54:29;100993.91;;;3.90;51.39
50349;BME280;36250;48.740;22.174;2023-02-27T10:56:57;100990.34;;;4.04;50.79
50349;BME280;36250;48.740;22.174;2023-02-27T10:59:31;100993.59;;;4.14;49.46
50349;BME280;36250;48.740;22.174;2023-02-27T11:02:02;100991.09;;;4.13;50.01
50349;BME280;36250;48.740;22.174;2023-02-27T11:04:33;100993.19;;;3.96;49.00
50349;BME280;36250;48.740;22.174;2023-02-27T11:07:00;100999.50;;;3.88;50.95
50349;BME280;36250;48.740;22.174;2023-02-27T11:09:29;101000.31;;;3.74;50.89
50349;BME280;36250;48.740;22.174;2023-02-27T11:12:10;101001.28;;;3.81;51.30
50349;BME280;36250;48.740;22.174;2023-02-27T11:14:47;101000.72;;;3.86;50.76
50349;BME280;36250;48.740;22.174;2023-02-27T11:17:21;101010.44;;;3.87;51.25
50349;BME280;36250;48.740;22.174;2023-02-27T11:19:46;101007.19;;;3.77;51.38
50349;BME280;36250;48.740;22.174;2023-02-27T11:22:20;101015.53;;;3.82;50.37
50349;BME280;36250;48.740;22.174;2023-02-27T11:24:48;101017.59;;;3.80;50.25
50349;BME280;36250;48.740;22.174;2023-02-27T11:27:28;101014.63;;;3.75;51.63
50349;BME280;36250;48.740;22.174;2023-02-27T11:30:00;101020.38;;;3.72;51.39
50349;BME280;36250;48.740;22.174;2023-02-27T11:32:35;101020.38;;;3.72;51.43
50349;BME280;36250;48.740;22.174;2023-02-27T11:35:29;101027.34;;;3.81;51.14
50349;BME280;36250;48.740;22.174;2023-02-27T11:37:57;101026.22;;;3.90;51.67
50349;BME280;36250;48.740;22.174;2023-02-27T11:40:36;101037.56;;;4.00;52.24
50349;BME280;36250;48.740;22.174;2023-02-27T11:45:42;101051.00;;;3.56;57.52
50349;BME280;36250;48.740;22.174;2023-02-27T11:48:13;101058.59;;;3.53;58.48
50349;BME280;36250;48.740;22.174;2023-02-27T11:50:52;101043.84;;;3.49;61.24
50349;BME280;36250;48.740;22.174;2023-02-27T11:56:05;101052.28;;;3.08;60.32
50349;BME280;36250;48.740;22.174;2023-02-27T11:58:38;101056.66;;;2.87;59.12
50349;BME280;36250;48.740;22.174;2023-02-27T12:01:14;101058.72;;;2.85;59.21
50349;BME280;36250;48.740;22.174;2023-02-27T12:03:50;101061.19;;;3.09;59.69
50349;BME280;36250;48.740;22.174;2023-02-27T12:06:28;101066.84;;;3.37;59.33
50349;BME280;36250;48.740;22.174;2023-02-27T12:08:59;101072.16;;;3.45;61.33
50349;BME280;36250;48.740;22.174;2023-02-27T12:11:34;101080.06;;;3.23;62.25
50349;BME280;36250;48.740;22.174;2023-02-27T12:16:53;101076.41;;;3.39;62.18
50349;BME280;36250;48.740;22.174;2023-02-27T12:19:33;101078.06;;;3.40;60.82
50349;BME280;36250;48.740;22.174;2023-02-27T12:22:31;101076.25;;;3.55;60.67
50349;BME280;36250;48.740;22.174;2023-02-27T12:25:09;101087.81;;;3.41;59.91
50349;BME280;36250;48.740;22.174;2023-02-27T12:28:03;101084.09;;;3.27;60.35
50349;BME280;36250;48.740;22.174;2023-02-27T12:31:03;101084.38;;;3.33;60.30
50349;BME280;36250;48.740;22.174;2023-02-27T12:33:33;101091.31;;;3.27;59.44
50349;BME280;36250;48.740;22.174;2023-02-27T12:36:02;101095.16;;;3.33;59.60
50349;BME280;36250;48.740;22.174;2023-02-27T12:38:28;101088.13;;;3.46;59.38
50349;BME280;36250;48.740;22.174;2023-02-27T12:44:02;101090.53;;;3.56;58.84
50349;BME280;36250;48.740;22.174;2023-02-27T12:49:44;101103.34;;;3.16;58.85
50349;BME280;36250;48.740;22.174;2023-02-27T13:00:21;101110.06;;;3.35;58.87
50349;BME280;36250;48.740;22.174;2023-02-27T13:03:13;101105.53;;;3.36;58.87
50349;BME280;36250;48.740;22.174;2023-02-27T13:05:52;101113.06;;;3.40;58.60
50349;BME280;36250;48.740;22.174;2023-02-27T13:11:05;101116.19;;;3.29;58.30
50349;BME280;36250;48.740;22.174;2023-02-27T13:13:58;101110.91;;;3.36;58.22
50349;BME280;36250;48.740;22.174;2023-02-27T13:16:33;101107.88;;;3.39;58.58
50349;BME280;36250;48.740;22.174;2023-02-27T13:21:39;101120.75;;;3.43;59.31
50349;BME280;36250;48.740;22.174;2023-02-27T13:24:23;101115.69;;;3.25;59.88
50349;BME280;36250;48.740;22.174;2023-02-27T13:26:59;101115.47;;;3.12;61.18
50349;BME280;36250;48.740;22.174;2023-02-27T13:29:33;101119.53;;;3.08;59.80
50349;BME280;36250;48.740;22.174;2023-02-27T13:32:18;101121.97;;;3.18;61.03
50349;BME280;36250;48.740;22.174;2023-02-27T13:34:54;101124.31;;;3.21;59.00
50349;BME280;36250;48.740;22.174;2023-02-27T13:37:21;101123.94;;;3.01;60.92
50349;BME280;36250;48.740;22.174;2023-02-27T13:44:52;101120.72;;;3.28;58.65
50349;BME280;36250;48.740;22.174;2023-02-27T13:49:59;101123.56;;;3.12;60.01
50349;BME280;36250;48.740;22.174;2023-02-27T13:52:36;101134.91;;;3.22;60.26
50349;BME280;36250;48.740;22.174;2023-02-27T13:55:06;101131.91;;;3.17;59.58
50349;BME280;36250;48.740;22.174;2023-02-27T13:57:34;101137.69;;;3.06;60.01
50349;BME280;36250;48.740;22.174;2023-02-27T14:00:06;101140.00;;;3.17;60.05
50349;BME280;36250;48.740;22.174;2023-02-27T14:02:42;101134.47;;;3.11;59.25
50349;BME280;36250;48.740;22.174;2023-02-27T14:05:11;101136.25;;;3.18;59.69
50349;BME280;36250;48.740;22.174;2023-02-27T14:08:02;101139.84;;;3.33;59.03
50349;BME280;36250;48.740;22.174;2023-02-27T14:10:29;101134.00;;;3.30;58.97
50349;BME280;36250;48.740;22.174;2023-02-27T14:12:56;101143.78;;;3.23;59.33
50349;BME280;36250;48.740;22.174;2023-02-27T14:17:49;101143.19;;;3.36;59.30
50349;BME280;36250;48.740;22.174;2023-02-27T14:23:15;101142.84;;;3.39;57.37
50349;BME280;36250;48.740;22.174;2023-02-27T14:25:46;101157.53;;;3.28;57.84
50349;BME280;36250;48.740;22.174;2023-02-27T14:28:22;101152.41;;;3.18;58.29
50349;BME280;36250;48.740;22.174;2023-02-27T14:30:53;101160.19;;;3.13;58.67
50349;BME280;36250;48.740;22.174;2023-02-27T14:33:26;101157.56;;;3.05;57.60
50349;BME280;36250;48.740;22.174;2023-02-27T14:36:00;101162.19;;;2.89;58.39
50349;BME280;36250;48.740;22.174;2023-02-27T14:38:27;101169.00;;;2.99;58.12
50349;BME280;36250;48.740;22.174;2023-02-27T14:41:16;101173.50;;;3.07;58.28
50349;BME280;36250;48.740;22.174;2023-02-27T14:43:47;101173.38;;;3.00;58.28
50349;BME280;36250;48.740;22.174;2023-02-27T14:46:35;101174.13;;;2.86;59.57
50349;BME280;36250;48.740;22.174;2023-02-27T14:49:03;101172.78;;;2.90;58.98
50349;BME280;36250;48.740;22.174;2023-02-27T14:51:32;101180.88;;;2.82;58.72
50349;BME280;36250;48.740;22.174;2023-02-27T14:54:12;101182.25;;;2.78;59.25
50349;BME280;36250;48.740;22.174;2023-02-27T14:56:38;101188.66;;;2.69;59.38